Time;durP1;ratioP1;P1;durP2;ratioP2;P2;SDS_P1;SDS_P2;PMS_P1;PMS_P2;Temp;Humidity;BMP_temperature;BMP_pressure;BME280_temperature;BME280_humidity;BME280_pressure;Samples;Min_cycle;Max_cycle;Signal;HPM_P1;HPM_P2
2021/09/17 00:00:28;;;;;;;25.95;21.42;;;16.50;99.90;;;;;;5109954;28;20476;-38
2021/09/17 00:02:55;;;;;;;32.88;25.52;;;16.50;99.90;;;;;;5109890;28;20463;-36
2021/09/17 00:05:20;;;;;;;31.63;24.10;;;16.50;99.90;;;;;;5110486;28;20119;-38
2021/09/17 00:07:46;;;;;;;28.52;23.90;;;16.50;99.90;;;;;;5110258;28;20467;-36
2021/09/17 00:10:12;;;;;;;26.23;21.73;;;16.50;99.90;;;;;;5110477;28;20031;-36
2021/09/17 00:12:38;;;;;;;29.23;22.98;;;16.50;99.90;;;;;;5110468;28;20099;-38
2021/09/17 00:15:04;;;;;;;28.98;22.60;;;16.50;99.90;;;;;;5110098;28;20131;-40
2021/09/17 00:17:33;;;;;;;31.83;24.25;;;16.40;99.90;;;;;;5110061;28;20110;-34
2021/09/17 00:19:58;;;;;;;34.05;25.60;;;16.40;99.90;;;;;;5110078;28;20011;-37
2021/09/17 00:22:23;;;;;;;36.78;28.25;;;16.40;99.90;;;;;;5110721;28;20027;-36
2021/09/17 00:24:49;;;;;;;35.10;27.75;;;16.40;99.90;;;;;;5109409;28;20035;-39
2021/09/17 00:27:14;;;;;;;38.30;28.17;;;16.40;99.90;;;;;;5110777;28;20032;-35
2021/09/17 00:29:40;;;;;;;39.88;29.67;;;16.50;99.90;;;;;;5109430;28;20022;-33
2021/09/17 00:32:06;;;;;;;35.65;27.60;;;16.50;99.90;;;;;;5110443;28;20065;-40
2021/09/17 00:34:31;;;;;;;39.63;28.83;;;16.60;99.90;;;;;;5110280;28;20463;-37
2021/09/17 00:37:00;;;;;;;31.35;23.95;;;16.60;99.90;;;;;;5110052;28;20024;-38
2021/09/17 00:39:25;;;;;;;38.55;29.67;;;16.70;99.90;;;;;;5108982;28;20494;-36
2021/09/17 00:41:53;;;;;;;32.60;25.88;;;16.70;99.90;;;;;;5109245;28;20019;-31
2021/09/17 00:44:28;;;;;;;40.20;31.30;;;16.70;99.90;;;;;;5110039;28;20057;-36
2021/09/17 00:46:54;;;;;;;38.38;29.67;;;16.70;99.90;;;;;;5099146;28;20166;-38
2021/09/17 00:49:20;;;;;;;36.90;28.80;;;16.70;99.90;;;;;;5094358;28;20106;-36
2021/09/17 00:51:49;;;;;;;45.58;33.88;;;16.70;99.90;;;;;;5107727;28;20023;-39
2021/09/17 00:54:19;;;;;;;47.25;35.08;;;16.70;99.90;;;;;;5108620;28;20034;-37
2021/09/17 00:56:45;;;;;;;45.42;31.98;;;16.70;99.90;;;;;;5108069;28;20020;-38
2021/09/17 00:59:12;;;;;;;43.03;31.73;;;16.70;99.90;;;;;;5108625;28;20114;-37
2021/09/17 01:01:39;;;;;;;38.88;28.23;;;16.70;99.90;;;;;;5109229;28;20344;-33
2021/09/17 01:04:08;;;;;;;47.28;34.47;;;16.70;99.90;;;;;;5109720;28;20027;-39
2021/09/17 01:06:36;;;;;;;40.33;30.70;;;16.70;99.90;;;;;;5107121;28;20447;-36
2021/09/17 01:09:03;;;;;;;38.00;29.42;;;16.70;99.90;;;;;;5109892;28;20382;-33
2021/09/17 01:11:29;;;;;;;47.90;35.08;;;16.70;99.90;;;;;;5109864;28;20066;-34
2021/09/17 01:13:55;;;;;;;52.22;38.22;;;16.70;99.90;;;;;;5108955;28;20052;-34
2021/09/17 01:16:21;;;;;;;51.97;36.20;;;16.70;99.90;;;;;;5109935;28;20044;-38
2021/09/17 01:18:46;;;;;;;48.42;36.03;;;16.70;99.90;;;;;;5109113;28;20500;-37
2021/09/17 01:21:12;;;;;;;42.72;33.00;;;16.70;99.90;;;;;;5108311;28;20177;-37
2021/09/17 01:23:38;;;;;;;35.92;28.00;;;16.70;99.90;;;;;;5107907;28;20023;-38
2021/09/17 01:26:03;;;;;;;40.17;29.50;;;16.70;99.90;;;;;;5107668;28;20035;-34
2021/09/17 01:28:34;;;;;;;42.80;32.88;;;16.70;99.90;;;;;;5108114;28;20113;-36
2021/09/17 01:31:00;;;;;;;46.63;33.78;;;16.70;99.90;;;;;;5107441;28;20031;-37
2021/09/17 01:33:27;;;;;;;43.85;33.38;;;16.70;99.90;;;;;;5110207;28;20072;-37
2021/09/17 01:36:02;;;;;;;41.22;30.15;;;16.70;99.90;;;;;;5108666;28;20417;-38
2021/09/17 01:38:30;;;;;;;37.25;28.42;;;16.70;99.90;;;;;;5088971;28;20106;-35
2021/09/17 01:40:56;;;;;;;35.38;27.63;;;16.70;99.90;;;;;;5109150;28;20116;-36
2021/09/17 01:43:28;;;;;;;34.08;26.65;;;16.70;99.90;;;;;;5109011;28;20019;-37
2021/09/17 01:45:54;;;;;;;36.85;26.27;;;16.70;99.90;;;;;;5109494;28;20035;-37
2021/09/17 01:48:21;;;;;;;34.60;26.42;;;16.70;99.90;;;;;;5109176;28;20019;-36
2021/09/17 01:50:47;;;;;;;33.42;26.00;;;16.70;99.90;;;;;;5108906;28;20016;-39
2021/09/17 01:53:13;;;;;;;28.08;22.05;;;16.70;99.90;;;;;;5109297;28;20355;-38
2021/09/17 01:55:38;;;;;;;28.35;22.15;;;16.70;99.90;;;;;;5108613;28;20080;-39
2021/09/17 01:58:04;;;;;;;28.10;22.00;;;16.70;99.90;;;;;;5108476;28;20425;-39
2021/09/17 02:00:33;;;;;;;40.80;29.40;;;16.70;99.90;;;;;;5112588;28;20036;-39
2021/09/17 02:02:58;;;;;;;36.65;28.42;;;16.60;99.90;;;;;;5110763;28;20052;-39
2021/09/17 02:05:24;;;;;;;33.75;26.25;;;16.50;99.90;;;;;;5112027;28;20070;-34
2021/09/17 02:07:50;;;;;;;37.88;26.38;;;16.50;99.90;;;;;;5110805;28;20429;-38
2021/09/17 02:10:16;;;;;;;38.60;27.60;;;16.50;99.90;;;;;;5110723;28;20015;-38
2021/09/17 02:12:42;;;;;;;37.33;28.02;;;16.50;99.90;;;;;;5111635;28;20022;-41
2021/09/17 02:15:11;;;;;;;30.58;24.33;;;16.50;99.90;;;;;;5112365;28;20493;-36
2021/09/17 02:17:37;;;;;;;35.63;25.75;;;16.50;99.90;;;;;;5111807;28;20107;-36
2021/09/17 02:20:05;;;;;;;31.55;24.67;;;16.50;99.90;;;;;;5112361;28;20349;-39
2021/09/17 02:22:33;;;;;;;33.83;26.23;;;16.50;99.90;;;;;;5112043;28;20510;-38
2021/09/17 02:25:00;;;;;;;36.00;27.33;;;16.50;99.90;;;;;;5111773;28;20016;-39
2021/09/17 02:27:26;;;;;;;34.80;26.52;;;16.50;99.90;;;;;;5111646;28;20019;-39
2021/09/17 02:29:51;;;;;;;37.13;28.65;;;16.50;99.90;;;;;;5110682;28;20028;-36
2021/09/17 02:32:17;;;;;;;36.28;27.75;;;16.50;99.90;;;;;;5111973;28;20020;-38
2021/09/17 02:34:43;;;;;;;37.35;27.75;;;16.60;99.90;;;;;;5112054;28;20024;-39
2021/09/17 02:37:08;;;;;;;34.63;26.85;;;16.60;99.90;;;;;;5112385;28;20568;-35
2021/09/17 02:39:34;;;;;;;42.83;27.38;;;16.60;99.90;;;;;;5112402;28;20020;-36
2021/09/17 02:41:59;;;;;;;35.55;27.58;;;16.60;99.90;;;;;;5112514;28;20031;-37
2021/09/17 02:44:25;;;;;;;34.17;25.83;;;16.60;99.90;;;;;;5111505;28;20020;-38
2021/09/17 02:46:53;;;;;;;36.65;26.67;;;16.60;99.90;;;;;;5111691;28;20044;-35
2021/09/17 02:49:19;;;;;;;35.00;27.05;;;16.60;99.90;;;;;;5112214;28;20535;-37
2021/09/17 02:51:46;;;;;;;35.40;27.25;;;16.60;99.90;;;;;;5111572;28;20027;-38
2021/09/17 02:54:12;;;;;;;37.95;27.95;;;16.60;99.90;;;;;;5112023;28;20020;-38
2021/09/17 02:56:43;;;;;;;35.22;25.50;;;16.60;99.90;;;;;;5111920;28;20072;-37
2021/09/17 02:59:09;;;;;;;34.63;26.70;;;16.60;99.90;;;;;;5111495;28;20023;-33
2021/09/17 03:01:34;;;;;;;35.30;26.73;;;16.60;99.90;;;;;;5112380;28;20019;-38
2021/09/17 03:04:02;;;;;;;34.17;26.67;;;16.60;99.90;;;;;;5111477;28;20039;-34
2021/09/17 03:06:28;;;;;;;33.30;26.23;;;16.60;99.90;;;;;;5111512;28;20132;-39
2021/09/17 03:08:56;;;;;;;33.50;25.98;;;16.60;99.90;;;;;;5109777;28;20492;-34
2021/09/17 03:11:22;;;;;;;31.83;24.65;;;16.50;99.90;;;;;;5109509;28;20463;-40
2021/09/17 03:13:50;;;;;;;32.40;24.67;;;16.50;99.90;;;;;;5109364;28;20037;-40
2021/09/17 03:16:16;;;;;;;36.97;26.85;;;16.50;99.90;;;;;;5110234;28;20116;-39
2021/09/17 03:18:41;;;;;;;33.88;26.40;;;16.50;99.90;;;;;;5109883;28;20055;-39
2021/09/17 03:21:07;;;;;;;36.05;26.30;;;16.40;99.90;;;;;;5110016;28;20024;-35
2021/09/17 03:23:32;;;;;;;37.03;27.55;;;16.40;99.90;;;;;;5111534;28;20028;-38
2021/09/17 03:25:58;;;;;;;32.95;25.50;;;16.40;99.90;;;;;;5109942;28;20075;-37
2021/09/17 03:28:24;;;;;;;34.97;24.83;;;16.40;99.90;;;;;;5111319;28;20027;-38
2021/09/17 03:30:50;;;;;;;36.25;26.52;;;16.40;99.90;;;;;;5109895;28;20072;-36
2021/09/17 03:33:15;;;;;;;36.78;28.45;;;16.40;99.90;;;;;;5110399;28;20475;-39
2021/09/17 03:35:42;;;;;;;38.60;28.67;;;16.40;99.90;;;;;;5111094;28;20020;-39
2021/09/17 03:38:08;;;;;;;36.60;28.63;;;16.40;99.90;;;;;;5111322;28;20459;-35
2021/09/17 03:40:36;;;;;;;35.28;27.55;;;16.50;99.90;;;;;;5110827;28;20024;-36
2021/09/17 03:43:03;;;;;;;40.42;29.60;;;16.40;99.90;;;;;;5110812;28;20023;-38
2021/09/17 03:45:31;;;;;;;39.97;29.88;;;16.50;99.90;;;;;;5110293;28;20104;-37
2021/09/17 03:48:04;;;;;;;38.08;29.38;;;16.40;99.90;;;;;;5108520;28;20059;-38
2021/09/17 03:50:30;;;;;;;39.10;29.08;;;16.50;99.90;;;;;;5109434;28;20502;-37
2021/09/17 03:52:55;;;;;;;39.53;29.00;;;16.50;99.90;;;;;;5110887;28;20031;-38
2021/09/17 03:55:21;;;;;;;39.55;29.35;;;16.50;99.90;;;;;;5110476;28;20054;-36
2021/09/17 03:57:46;;;;;;;37.92;28.58;;;16.50;99.90;;;;;;5110143;28;20015;-37
2021/09/17 04:00:13;;;;;;;36.72;28.30;;;16.50;99.90;;;;;;5111017;28;20496;-35
2021/09/17 04:02:38;;;;;;;38.88;28.23;;;16.50;99.90;;;;;;5110351;28;20083;-39
2021/09/17 04:05:04;;;;;;;38.13;28.67;;;16.50;99.90;;;;;;5110925;28;20035;-39
2021/09/17 04:07:40;;;;;;;38.75;29.08;;;16.50;99.90;;;;;;5110890;28;20028;-37
2021/09/17 04:10:08;;;;;;;41.88;29.45;;;16.40;99.90;;;;;;5109855;28;20028;-39
2021/09/17 04:12:40;;;;;;;41.85;30.45;;;16.50;99.90;;;;;;5110428;28;20024;-38
2021/09/17 04:15:09;;;;;;;41.25;30.73;;;16.50;99.90;;;;;;5110328;28;20139;-37
2021/09/17 04:17:35;;;;;;;41.63;30.73;;;16.50;99.90;;;;;;5109331;28;20103;-31
2021/09/17 04:20:00;;;;;;;45.90;31.15;;;16.50;99.90;;;;;;5108030;28;20115;-36
2021/09/17 04:22:26;;;;;;;45.40;31.17;;;16.50;99.90;;;;;;5108027;28;20016;-38
2021/09/17 04:24:53;;;;;;;40.55;29.80;;;16.50;99.90;;;;;;5108186;28;20027;-36
2021/09/17 04:27:20;;;;;;;44.40;32.13;;;16.50;99.90;;;;;;5109875;28;20011;-39
2021/09/17 04:29:46;;;;;;;44.08;31.13;;;16.50;99.90;;;;;;5109567;28;20050;-37
2021/09/17 04:32:14;;;;;;;43.63;31.77;;;16.50;99.90;;;;;;5109987;28;20058;-37
2021/09/17 04:34:43;;;;;;;41.70;31.15;;;16.50;99.90;;;;;;5109900;28;20471;-37
2021/09/17 04:37:08;;;;;;;41.42;30.30;;;16.50;99.90;;;;;;5109548;28;20027;-38
2021/09/17 04:39:34;;;;;;;41.55;31.13;;;16.50;99.90;;;;;;5109612;28;20466;-39
2021/09/17 04:42:00;;;;;;;42.92;30.10;;;16.50;99.90;;;;;;5108225;28;20501;-34
2021/09/17 04:44:25;;;;;;;43.97;31.42;;;16.60;99.90;;;;;;5109697;28;20016;-39
2021/09/17 04:46:57;;;;;;;43.40;31.60;;;16.50;99.90;;;;;;5110094;28;20047;-39
2021/09/17 04:49:22;;;;;;;43.55;31.38;;;16.60;99.90;;;;;;5102669;28;20024;-38
2021/09/17 04:51:48;;;;;;;46.47;31.10;;;16.50;99.90;;;;;;5108951;28;20020;-40
2021/09/17 04:54:14;;;;;;;44.05;31.30;;;16.50;99.90;;;;;;5110278;28;20111;-39
2021/09/17 04:56:40;;;;;;;44.42;32.25;;;16.50;99.90;;;;;;5108726;28;20164;-38
2021/09/17 04:59:05;;;;;;;46.60;32.88;;;16.50;99.90;;;;;;5109258;28;20023;-43
2021/09/17 05:01:31;;;;;;;48.42;35.08;;;16.50;99.90;;;;;;5110634;28;20024;-44
2021/09/17 05:03:57;;;;;;;49.28;34.53;;;16.50;99.90;;;;;;5109135;28;20108;-43
2021/09/17 05:06:22;;;;;;;50.53;34.42;;;16.50;99.90;;;;;;5109686;28;20036;-45
2021/09/17 05:08:48;;;;;;;49.15;35.47;;;16.50;99.90;;;;;;5109163;28;20080;-44
2021/09/17 05:11:13;;;;;;;46.13;33.45;;;16.50;99.90;;;;;;5110562;28;20030;-41
2021/09/17 05:13:39;;;;;;;47.15;34.05;;;16.60;99.90;;;;;;5109383;28;20319;-43
2021/09/17 05:16:05;;;;;;;47.53;34.45;;;16.50;99.90;;;;;;5109770;28;20048;-38
2021/09/17 05:18:30;;;;;;;49.45;34.15;;;16.50;99.90;;;;;;5109893;28;20026;-41
2021/09/17 05:20:56;;;;;;;46.90;33.05;;;16.50;99.90;;;;;;5108140;28;20023;-41
2021/09/17 05:23:22;;;;;;;47.80;33.80;;;16.50;99.90;;;;;;5110223;28;20448;-44
2021/09/17 05:25:47;;;;;;;43.88;33.35;;;16.60;99.90;;;;;;5102531;28;20031;-37
2021/09/17 05:28:13;;;;;;;46.55;33.47;;;16.60;99.90;;;;;;5108568;28;20050;-38
2021/09/17 05:30:38;;;;;;;44.45;32.40;;;16.60;99.90;;;;;;5105109;28;20052;-37
2021/09/17 05:33:05;;;;;;;48.50;32.83;;;16.60;99.90;;;;;;5078715;28;20025;-37
2021/09/17 05:35:31;;;;;;;45.92;33.15;;;16.60;99.90;;;;;;5095388;28;20482;-40
2021/09/17 05:37:56;;;;;;;47.65;33.15;;;16.60;99.90;;;;;;5101893;28;20079;-40
2021/09/17 05:40:22;;;;;;;47.30;33.58;;;16.60;99.90;;;;;;5106276;28;20024;-43
2021/09/17 05:42:47;;;;;;;47.92;33.70;;;16.60;99.90;;;;;;5111520;28;20037;-40
2021/09/17 05:45:13;;;;;;;48.03;33.67;;;16.60;99.90;;;;;;5111403;28;20058;-42
2021/09/17 05:47:41;;;;;;;47.88;33.17;;;16.60;99.90;;;;;;5110788;28;20110;-42
2021/09/17 05:50:08;;;;;;;48.00;33.97;;;16.60;99.90;;;;;;5111603;28;20019;-40
2021/09/17 05:52:33;;;;;;;49.50;34.83;;;16.60;99.90;;;;;;5112769;28;20051;-37
2021/09/17 05:54:59;;;;;;;47.33;34.58;;;16.60;99.90;;;;;;5111445;28;20461;-38
2021/09/17 05:57:24;;;;;;;49.70;35.13;;;16.60;99.90;;;;;;5112987;28;20028;-41
2021/09/17 05:59:50;;;;;;;47.50;33.85;;;16.60;99.90;;;;;;5097177;28;20028;-42
2021/09/17 06:02:15;;;;;;;45.17;32.63;;;16.60;99.90;;;;;;5108158;28;20019;-42
2021/09/17 06:04:41;;;;;;;44.63;32.67;;;16.60;99.90;;;;;;5102582;28;20020;-42
2021/09/17 06:07:06;;;;;;;48.67;34.03;;;16.60;99.90;;;;;;5113480;28;20031;-42
2021/09/17 06:09:34;;;;;;;45.42;32.95;;;16.60;99.90;;;;;;5112681;28;20127;-43
2021/09/17 06:11:59;;;;;;;46.80;34.13;;;16.60;99.90;;;;;;5112703;28;20103;-44
2021/09/17 06:14:25;;;;;;;48.75;33.80;;;16.60;99.90;;;;;;5113667;28;20127;-43
2021/09/17 06:16:50;;;;;;;46.42;33.42;;;16.70;99.90;;;;;;5112022;28;20059;-43
2021/09/17 06:19:16;;;;;;;48.15;33.80;;;16.70;99.90;;;;;;5110925;28;20425;-42
2021/09/17 06:21:41;;;;;;;46.03;34.10;;;16.70;99.90;;;;;;5106567;28;20019;-44
2021/09/17 06:24:07;;;;;;;45.60;34.20;;;16.70;99.90;;;;;;5112355;28;20071;-44
2021/09/17 06:26:33;;;;;;;42.58;31.58;;;16.80;99.90;;;;;;5112736;28;20097;-41
2021/09/17 06:29:00;;;;;;;40.88;30.67;;;16.80;99.90;;;;;;5102091;28;20062;-41
2021/09/17 06:31:26;;;;;;;39.55;29.63;;;16.90;99.90;;;;;;5103389;28;20047;-37
2021/09/17 06:33:52;;;;;;;43.65;31.63;;;17.00;99.90;;;;;;5110802;28;20445;-37
2021/09/17 06:36:17;;;;;;;40.67;30.73;;;17.00;99.90;;;;;;5111140;28;20173;-40
2021/09/17 06:38:46;;;;;;;38.53;28.80;;;17.10;99.90;;;;;;5110467;28;20054;-40
2021/09/17 06:41:15;;;;;;;38.45;28.85;;;17.10;99.90;;;;;;5111028;28;20193;-39
2021/09/17 06:43:41;;;;;;;40.17;30.38;;;17.10;99.90;;;;;;5111423;28;20028;-38
2021/09/17 06:46:07;;;;;;;38.15;29.92;;;17.20;99.90;;;;;;5110441;28;20035;-38
2021/09/17 06:48:32;;;;;;;38.67;30.27;;;17.20;99.90;;;;;;5110580;28;20480;-40
2021/09/17 06:50:58;;;;;;;43.95;30.70;;;17.20;99.90;;;;;;5110416;28;20111;-38
2021/09/17 06:53:23;;;;;;;41.47;30.80;;;17.30;99.90;;;;;;5112735;28;20024;-39
2021/09/17 06:55:49;;;;;;;41.22;31.08;;;17.30;99.90;;;;;;5111805;28;20049;-35
2021/09/17 06:58:15;;;;;;;39.42;29.23;;;17.40;99.90;;;;;;5111936;28;20012;-44
2021/09/17 07:00:40;;;;;;;37.65;29.00;;;17.40;99.90;;;;;;5111795;28;20378;-35
2021/09/17 07:03:07;;;;;;;38.17;29.52;;;17.50;99.90;;;;;;5111997;28;20023;-40
2021/09/17 07:05:33;;;;;;;39.00;29.50;;;17.50;99.90;;;;;;5112109;28;20039;-40
2021/09/17 07:08:04;;;;;;;37.30;28.45;;;17.60;99.90;;;;;;5111735;28;20024;-43
2021/09/17 07:10:31;;;;;;;35.80;27.75;;;17.60;99.90;;;;;;5112102;28;20038;-40
2021/09/17 07:12:57;;;;;;;37.00;28.67;;;17.70;99.90;;;;;;5111110;28;20016;-39
2021/09/17 07:15:23;;;;;;;34.95;28.08;;;17.70;99.90;;;;;;5105856;28;20036;-41
2021/09/17 07:17:49;;;;;;;34.22;26.52;;;17.80;99.90;;;;;;5089599;28;20085;-39
2021/09/17 07:20:15;;;;;;;33.28;25.83;;;17.80;99.90;;;;;;5111387;28;20016;-40
2021/09/17 07:22:40;;;;;;;33.17;25.40;;;17.80;99.90;;;;;;5111791;28;20015;-40
2021/09/17 07:25:07;;;;;;;30.52;24.88;;;17.90;99.90;;;;;;5110139;28;20031;-38
2021/09/17 07:27:32;;;;;;;28.35;23.20;;;17.90;99.90;;;;;;5109657;28;20020;-41
2021/09/17 07:29:58;;;;;;;26.92;22.23;;;17.90;99.90;;;;;;5110381;28;20077;-38
2021/09/17 07:32:24;;;;;;;29.55;24.02;;;18.00;99.90;;;;;;5111382;28;20081;-37
2021/09/17 07:34:50;;;;;;;27.77;22.08;;;18.00;99.90;;;;;;5111388;28;20012;-44
2021/09/17 07:37:15;;;;;;;27.05;22.10;;;18.00;99.90;;;;;;5111587;28;20026;-39
2021/09/17 07:39:41;;;;;;;29.25;22.88;;;18.10;99.90;;;;;;5110528;28;20019;-37
2021/09/17 07:42:07;;;;;;;28.10;22.80;;;18.10;99.90;;;;;;5110841;28;20027;-39
2021/09/17 07:44:34;;;;;;;29.60;22.88;;;18.10;99.90;;;;;;5104802;28;20462;-39
2021/09/17 07:47:01;;;;;;;23.42;20.90;;;18.20;99.90;;;;;;5108932;28;20085;-38
2021/09/17 07:49:26;;;;;;;27.17;21.65;;;18.20;99.90;;;;;;5109963;28;20577;-38
2021/09/17 07:51:52;;;;;;;26.17;22.02;;;18.30;99.90;;;;;;5109643;28;20115;-35
2021/09/17 07:54:20;;;;;;;23.95;20.25;;;18.30;99.90;;;;;;5101151;28;20023;-35
2021/09/17 07:56:46;;;;;;;25.13;20.88;;;18.40;99.90;;;;;;5107203;28;20053;-37
2021/09/17 07:59:11;;;;;;;24.15;19.73;;;18.40;99.90;;;;;;5108819;28;20019;-37
2021/09/17 08:01:37;;;;;;;26.92;21.42;;;18.50;99.90;;;;;;5109908;28;20030;-40
2021/09/17 08:04:03;;;;;;;24.15;20.05;;;18.60;99.90;;;;;;5110855;28;20019;-39
2021/09/17 08:06:28;;;;;;;25.17;20.90;;;18.70;99.90;;;;;;5111163;28;20032;-38
2021/09/17 08:08:56;;;;;;;26.27;20.98;;;18.70;99.90;;;;;;5110140;28;20479;-34
2021/09/17 08:11:22;;;;;;;25.02;20.45;;;18.80;99.90;;;;;;5111000;28;20027;-38
2021/09/17 08:13:47;;;;;;;24.90;18.50;;;18.80;99.90;;;;;;5110044;28;20020;-39
2021/09/17 08:16:15;;;;;;;21.23;18.40;;;18.90;99.90;;;;;;5110144;28;20051;-39
2021/09/17 08:18:41;;;;;;;21.80;17.55;;;18.90;99.90;;;;;;5110901;28;20426;-38
2021/09/17 08:21:07;;;;;;;23.80;16.80;;;18.90;99.90;;;;;;5107252;28;20020;-37
2021/09/17 08:23:32;;;;;;;19.40;16.55;;;19.00;99.90;;;;;;5110074;28;20028;-39
2021/09/17 08:25:58;;;;;;;21.33;17.98;;;19.00;99.90;;;;;;5109918;28;20031;-39
2021/09/17 08:28:25;;;;;;;21.70;18.50;;;19.00;99.90;;;;;;5111726;28;20061;-40
2021/09/17 08:30:51;;;;;;;20.25;16.45;;;19.10;99.90;;;;;;5109081;28;20116;-38
2021/09/17 08:33:18;;;;;;;23.23;19.70;;;19.00;99.90;;;;;;5110309;28;20513;-38
2021/09/17 08:35:43;;;;;;;23.33;18.23;;;19.00;99.90;;;;;;5110389;28;20031;-41
2021/09/17 08:38:09;;;;;;;21.83;17.75;;;19.00;99.90;;;;;;5110530;28;20020;-39
2021/09/17 08:40:35;;;;;;;20.88;18.67;;;19.10;99.90;;;;;;5110523;28;20048;-38
2021/09/17 08:43:03;;;;;;;20.65;17.48;;;19.10;99.90;;;;;;5109557;28;20475;-37
2021/09/17 08:45:30;;;;;;;18.33;15.93;;;19.20;99.90;;;;;;5105074;28;20112;-35
2021/09/17 08:48:00;;;;;;;18.73;16.05;;;19.30;99.90;;;;;;5084316;28;20308;-44
2021/09/17 08:50:27;;;;;;;20.35;17.20;;;19.30;99.90;;;;;;5083996;28;20536;-40
2021/09/17 08:52:53;;;;;;;17.85;15.55;;;19.40;99.90;;;;;;5079361;28;20032;-42
2021/09/17 08:55:18;;;;;;;16.83;15.02;;;19.50;99.90;;;;;;5081094;28;20028;-43
2021/09/17 08:57:45;;;;;;;16.05;14.35;;;19.60;99.90;;;;;;5105670;28;20073;-41
2021/09/17 09:00:31;;;;;;;19.00;15.05;;;19.60;99.90;;;;;;5087432;28;20016;-44
2021/09/17 09:02:58;;;;;;;17.77;15.13;;;19.60;99.90;;;;;;5082847;28;20035;-45
2021/09/17 09:05:32;;;;;;;20.20;15.30;;;19.70;99.90;;;;;;5092612;28;20037;-44
2021/09/17 09:07:59;;;;;;;14.85;13.23;;;19.70;99.90;;;;;;5108866;28;20063;-41
2021/09/17 09:10:25;;;;;;;17.95;14.23;;;19.70;99.90;;;;;;5110177;28;20452;-42
2021/09/17 09:12:56;;;;;;;18.52;15.07;;;19.80;99.90;;;;;;5112080;28;20020;-42
2021/09/17 09:15:30;;;;;;;16.15;14.38;;;19.90;99.90;;;;;;5114348;28;20113;-43
2021/09/17 09:18:11;;;;;;;17.55;15.65;;;20.00;99.90;;;;;;5112808;28;20455;-40
2021/09/17 09:20:39;;;;;;;11.55;10.27;;;20.10;99.90;;;;;;5088586;28;20036;-41
2021/09/17 09:23:14;;;;;;;15.52;12.95;;;20.30;99.90;;;;;;5091837;28;20032;-41
2021/09/17 09:25:52;;;;;;;12.80;11.35;;;20.50;99.90;;;;;;5081290;28;20490;-43
2021/09/17 09:28:21;;;;;;;16.60;13.88;;;20.50;99.90;;;;;;5095530;28;20028;-44
2021/09/17 09:30:46;;;;;;;14.35;12.63;;;20.60;99.90;;;;;;5077928;28;20031;-42
2021/09/17 09:33:23;;;;;;;16.02;13.20;;;20.70;99.90;;;;;;5105101;28;20020;-42
2021/09/17 09:36:09;;;;;;;15.07;12.63;;;20.70;99.90;;;;;;5072361;28;20042;-39
2021/09/17 09:38:42;;;;;;;14.35;12.50;;;20.70;99.90;;;;;;5109944;28;20062;-42
2021/09/17 09:41:33;;;;;;;12.75;11.38;;;20.70;99.90;;;;;;5112578;28;20024;-39
2021/09/17 09:44:01;;;;;;;11.63;10.38;;;20.70;99.90;;;;;;5110706;28;20042;-42
2021/09/17 09:46:41;;;;;;;12.18;10.45;;;20.70;99.90;;;;;;5112454;28;20040;-44
2021/09/17 09:49:22;;;;;;;13.25;11.07;;;20.70;99.90;;;;;;5111171;28;20008;-41
2021/09/17 09:52:06;;;;;;;13.95;11.05;;;20.80;99.90;;;;;;5106299;28;20034;-42
2021/09/17 09:54:33;;;;;;;14.07;11.95;;;20.80;99.90;;;;;;5111997;28;20010;-38
2021/09/17 09:57:00;;;;;;;13.70;11.40;;;20.80;99.90;;;;;;5079180;28;20039;-42
2021/09/17 09:59:29;;;;;;;14.95;13.35;;;20.90;99.90;;;;;;5110803;28;20096;-42
2021/09/17 10:01:56;;;;;;;13.27;11.88;;;20.90;99.90;;;;;;5111307;28;20028;-39
2021/09/17 10:04:23;;;;;;;11.98;10.75;;;20.90;99.90;;;;;;5098759;28;20009;-36
2021/09/17 10:07:05;;;;;;;13.63;12.23;;;21.00;99.90;;;;;;5111220;28;20069;-38
2021/09/17 10:09:32;;;;;;;16.40;14.35;;;21.00;99.90;;;;;;5109488;28;20024;-41
2021/09/17 10:12:01;;;;;;;14.45;12.95;;;21.00;99.90;;;;;;5112037;28;20051;-42
2021/09/17 10:14:29;;;;;;;20.83;17.13;;;21.10;99.90;;;;;;5111352;28;20100;-36
2021/09/17 10:16:57;;;;;;;20.27;18.17;;;21.10;99.90;;;;;;5112912;28;20032;-39
2021/09/17 10:19:23;;;;;;;16.85;14.90;;;21.10;99.90;;;;;;5112527;28;20020;-42
2021/09/17 10:21:51;;;;;;;14.27;12.70;;;21.10;99.90;;;;;;5111561;28;20035;-41
2021/09/17 10:24:39;;;;;;;16.52;13.73;;;21.10;99.90;;;;;;5113337;28;20012;-41
2021/09/17 10:27:05;;;;;;;16.15;13.93;;;21.10;99.90;;;;;;5111352;28;20039;-35
2021/09/17 10:29:43;;;;;;;18.65;16.45;;;21.20;99.90;;;;;;5111740;28;20111;-39
2021/09/17 10:32:37;;;;;;;21.92;18.33;;;21.20;99.90;;;;;;5075163;28;20577;-37
2021/09/17 10:35:41;;;;;;;18.88;16.17;;;21.20;99.90;;;;;;5100876;28;20023;-38
2021/09/17 10:38:18;;;;;;;15.80;13.45;;;21.20;99.90;;;;;;5043132;28;20273;-38
2021/09/17 10:40:52;;;;;;;16.45;14.15;;;21.30;99.90;;;;;;5097823;28;20027;-38
2021/09/17 10:43:37;;;;;;;18.38;15.00;;;21.30;99.90;;;;;;5102129;28;20039;-39
2021/09/17 10:46:23;;;;;;;19.58;15.95;;;21.30;99.90;;;;;;5094489;28;20467;-40
2021/09/17 10:48:51;;;;;;;17.10;14.20;;;21.40;99.90;;;;;;5094336;28;20038;-36
2021/09/17 10:51:46;;;;;;;18.52;16.00;;;21.40;99.90;;;;;;5108854;28;20081;-40
2021/09/17 10:54:19;;;;;;;17.02;13.90;;;21.40;99.90;;;;;;5080606;28;20027;-35
2021/09/17 10:57:03;;;;;;;14.82;13.23;;;21.40;99.90;;;;;;5106453;28;20102;-42
2021/09/17 10:59:39;;;;;;;17.35;14.60;;;21.50;99.90;;;;;;5097516;28;20012;-44
2021/09/17 11:02:06;;;;;;;20.73;16.90;;;21.50;99.90;;;;;;5110294;28;20035;-44
2021/09/17 11:04:40;;;;;;;23.15;17.25;;;21.60;99.90;;;;;;5109597;28;20101;-42
2021/09/17 11:07:18;;;;;;;18.30;16.08;;;21.60;99.90;;;;;;5104703;28;20043;-42
2021/09/17 11:09:47;;;;;;;18.92;16.65;;;21.70;99.90;;;;;;5109252;28;20032;-40
2021/09/17 11:12:18;;;;;;;23.33;20.15;;;21.70;99.80;;;;;;5101230;28;20020;-42
2021/09/17 11:15:09;;;;;;;20.98;16.75;;;21.80;99.70;;;;;;5070599;28;20122;-43
2021/09/17 11:17:44;;;;;;;21.35;18.80;;;21.80;99.50;;;;;;5110384;28;20012;-41
2021/09/17 11:20:13;;;;;;;17.55;15.38;;;21.90;99.30;;;;;;5111173;28;20455;-43
2021/09/17 11:22:54;;;;;;;21.77;19.17;;;22.00;99.40;;;;;;5111167;28;20028;-39
2021/09/17 11:25:31;;;;;;;18.23;14.50;;;22.00;99.30;;;;;;5110279;28;20028;-42
2021/09/17 11:27:57;;;;;;;17.40;15.30;;;22.10;99.30;;;;;;5108239;28;20039;-41
2021/09/17 11:30:25;;;;;;;23.13;18.73;;;22.00;99.30;;;;;;5110681;28;20067;-38
2021/09/17 11:32:51;;;;;;;20.35;16.58;;;22.00;99.20;;;;;;5082973;28;20544;-41
2021/09/17 11:35:17;;;;;;;21.48;17.83;;;22.00;99.40;;;;;;5073350;28;20021;-40
2021/09/17 11:37:56;;;;;;;21.13;16.65;;;21.90;99.20;;;;;;5110147;28;20043;-42
2021/09/17 11:40:23;;;;;;;18.35;15.75;;;21.90;99.40;;;;;;5111132;28;20031;-40
2021/09/17 11:42:48;;;;;;;19.00;15.73;;;21.80;99.50;;;;;;5111167;28;20359;-42
2021/09/17 11:45:19;;;;;;;19.20;16.67;;;21.80;99.60;;;;;;5080983;28;20732;-40
2021/09/17 11:47:51;;;;;;;24.75;19.85;;;21.70;99.60;;;;;;5088725;28;20054;-35
2021/09/17 11:50:17;;;;;;;26.48;20.60;;;21.80;99.70;;;;;;5080718;28;20057;-35
2021/09/17 11:52:50;;;;;;;21.05;17.75;;;21.70;99.50;;;;;;5090022;28;20103;-34
2021/09/17 11:55:22;;;;;;;27.33;19.95;;;21.80;99.40;;;;;;5076214;28;20749;-41
2021/09/17 11:57:52;;;;;;;23.38;19.45;;;21.80;99.40;;;;;;5099702;28;20407;-41
2021/09/17 12:00:21;;;;;;;21.85;18.00;;;21.90;99.20;;;;;;5110874;28;20022;-38
2021/09/17 12:02:53;;;;;;;23.58;19.10;;;22.10;99.00;;;;;;5110446;28;20019;-38
2021/09/17 12:05:21;;;;;;;20.45;17.20;;;22.20;98.60;;;;;;5110967;28;20034;-40
2021/09/17 12:07:51;;;;;;;18.23;14.20;;;22.40;98.50;;;;;;5109957;28;20090;-39
2021/09/17 12:10:37;;;;;;;21.50;17.85;;;22.50;98.40;;;;;;5111159;28;20035;-41
2021/09/17 12:13:10;;;;;;;24.10;20.15;;;22.60;98.10;;;;;;5111285;28;20047;-40
2021/09/17 12:15:39;;;;;;;25.35;18.80;;;22.60;97.80;;;;;;5109541;28;20040;-41
2021/09/17 12:18:06;;;;;;;18.92;15.32;;;22.60;97.60;;;;;;5109216;28;20080;-38
2021/09/17 12:20:40;;;;;;;18.15;14.88;;;22.60;97.80;;;;;;5109375;28;20012;-38
2021/09/17 12:23:06;;;;;;;16.52;13.48;;;22.70;97.90;;;;;;5108438;28;20627;-38
2021/09/17 12:25:32;;;;;;;20.42;17.67;;;22.70;97.90;;;;;;5109007;28;20118;-41
2021/09/17 12:28:03;;;;;;;16.35;14.10;;;22.70;97.50;;;;;;5108968;28;20350;-39
2021/09/17 12:30:31;;;;;;;19.15;15.85;;;22.70;97.80;;;;;;5110010;28;20072;-41
2021/09/17 12:33:12;;;;;;;24.23;19.35;;;22.70;97.60;;;;;;5108483;28;20016;-39